createdAt,value
2019-01-03T00:02:42.669Z,80.36
2019-01-03T00:05:29.708Z,80.78
2019-01-03T00:08:16.558Z,81.05
2019-01-03T00:11:03.608Z,81.20
2019-01-03T00:13:50.630Z,81.22
2019-01-03T00:16:44.977Z,81.26
2019-01-03T00:19:36.895Z,81.51
2019-01-03T00:22:44.386Z,81.46
2019-01-03T00:25:31.537Z,81.48
2019-01-03T00:28:28.655Z,81.48
2019-01-03T00:31:14.768Z,81.34
2019-01-03T00:34:03.467Z,81.21
2019-01-03T00:36:50.621Z,81.37
2019-01-03T00:39:40.079Z,81.63
2019-01-03T00:42:31.172Z,81.66
2019-01-03T00:45:25.454Z,81.67
2019-01-03T00:48:17.928Z,81.66
2019-01-03T00:51:12.215Z,81.70
2019-01-03T00:53:59.347Z,82.00
2019-01-03T00:56:47.690Z,82.11
2019-01-03T00:59:39.376Z,82.17
2019-01-03T01:02:33.503Z,82.19
2019-01-03T01:05:21.125Z,82.11
2019-01-03T01:08:08.110Z,82.20
2019-01-03T01:11:02.738Z,82.48
2019-01-03T01:13:50.027Z,82.32
2019-01-03T01:16:48.238Z,82.21
2019-01-03T01:19:39.303Z,82.50
2019-01-03T01:22:27.548Z,82.52
2019-01-03T01:25:14.682Z,82.60
2019-01-03T01:27:59.425Z,82.60
2019-01-03T01:30:46.644Z,82.58
2019-01-03T01:33:38.737Z,82.65
2019-01-03T01:36:26.991Z,82.77
2019-01-03T01:39:21.434Z,82.80
2019-01-03T01:42:09.130Z,82.89
2019-01-03T01:44:57.390Z,82.99
2019-01-03T01:47:51.121Z,82.85
2019-01-03T01:50:54.602Z,82.74
2019-01-03T01:53:36.920Z,82.56
2019-01-03T01:56:25.179Z,82.34
2019-01-03T01:59:19.327Z,82.20
2019-01-03T02:02:10.444Z,82.39
2019-01-03T02:04:57.372Z,82.60
2019-01-03T02:07:45.636Z,82.51
2019-01-03T02:10:46.379Z,82.88
2019-01-03T02:13:43.849Z,82.96
2019-01-03T02:16:27.366Z,82.87
2019-01-03T02:19:24.738Z,82.69
2019-01-03T02:22:22.347Z,82.77
2019-01-03T02:25:25.709Z,82.97
2019-01-03T02:28:17.992Z,82.95
2019-01-03T02:31:15.560Z,83.20
2019-01-03T02:34:02.718Z,83.29
2019-01-03T02:36:45.533Z,83.31
2019-01-03T02:39:32.741Z,83.19
2019-01-03T02:42:20.200Z,83.13
2019-01-03T02:45:08.462Z,83.28
2019-01-03T02:47:59.686Z,83.26
2019-01-03T02:50:53.846Z,83.26
2019-01-03T02:53:40.747Z,83.17
2019-01-03T02:56:37.824Z,83.25
2019-01-03T02:59:26.318Z,83.42
2019-01-03T03:02:20.480Z,83.45
2019-01-03T03:05:13.777Z,83.31
2019-01-03T03:08:02.387Z,83.38
2019-01-03T03:10:50.649Z,83.60
2019-01-03T03:13:41.730Z,83.58
2019-01-03T03:16:45.150Z,83.65
2019-01-03T03:19:33.137Z,83.63
2019-01-03T03:22:24.375Z,83.70
2019-01-03T03:25:11.308Z,83.62
2019-01-03T03:28:11.824Z,83.68
2019-01-03T03:31:00.238Z,83.76
2019-01-03T03:33:51.270Z,83.73
2019-01-03T03:36:40.059Z,83.58
2019-01-03T03:39:27.142Z,83.71
2019-01-03T03:42:19.786Z,83.53
2019-01-03T03:45:23.341Z,83.59
2019-01-03T03:48:07.505Z,83.57
2019-01-03T03:50:55.026Z,83.40
2019-01-03T03:53:42.052Z,83.31
2019-01-03T03:56:45.481Z,83.15
2019-01-03T03:59:41.108Z,83.00
2019-01-03T04:02:27.992Z,82.89
2019-01-03T04:05:16.214Z,82.63
2019-01-03T04:08:03.090Z,82.74
2019-01-03T04:10:51.337Z,82.86
2019-01-03T04:13:38.505Z,82.74
2019-01-03T04:16:23.774Z,82.78
2019-01-03T04:19:11.054Z,82.86
2019-01-03T04:22:08.514Z,82.72
2019-01-03T04:24:55.842Z,82.85
2019-01-03T04:27:44.094Z,83.06
2019-01-03T04:30:44.394Z,83.02
2019-01-03T04:33:28.657Z,83.11
2019-01-03T04:36:23.378Z,82.92
2019-01-03T04:39:06.424Z,83.19
2019-01-03T04:41:53.595Z,83.40
2019-01-03T04:44:44.976Z,83.56
2019-01-03T04:47:32.161Z,83.77
2019-01-03T04:50:19.231Z,83.61
2019-01-03T04:53:13.487Z,83.53
2019-01-03T04:56:07.795Z,83.43
2019-01-03T04:59:02.192Z,83.41
2019-01-03T05:02:10.391Z,83.79
2019-01-03T05:05:06.860Z,83.75
2019-01-03T05:08:01.440Z,83.64
2019-01-03T05:10:48.406Z,83.82
2019-01-03T05:13:35.606Z,83.98
2019-01-03T05:16:29.959Z,84.13
2019-01-03T05:19:16.722Z,84.20
2019-01-03T05:22:08.006Z,84.45
2019-01-03T05:28:17.405Z,84.87
2019-01-03T05:31:16.693Z,84.88
2019-01-03T05:34:23.013Z,85.27
2019-01-03T05:37:30.366Z,85.54
2019-01-03T05:40:18.636Z,85.72
2019-01-03T05:43:18.861Z,85.58
2019-01-03T05:46:07.173Z,85.54
2019-01-03T05:49:07.936Z,85.78
2019-01-03T05:51:55.249Z,85.71
2019-01-03T05:54:42.337Z,85.40
2019-01-03T05:57:30.621Z,85.31
2019-01-03T06:00:26.882Z,84.98
2019-01-03T06:03:18.199Z,85.04
2019-01-03T06:06:06.520Z,85.20
2019-01-03T06:08:53.563Z,85.26
2019-01-03T06:11:41.862Z,85.38
2019-01-03T06:14:39.474Z,85.58
2019-01-03T06:17:33.229Z,85.88
2019-01-03T06:20:27.538Z,85.72
2019-01-03T06:23:14.775Z,85.56
2019-01-03T06:26:02.158Z,85.67
2019-01-03T06:28:49.140Z,85.49
2019-01-03T06:31:40.526Z,85.61
2019-01-03T06:34:40.915Z,85.40
2019-01-03T06:37:44.385Z,84.99
2019-01-03T06:40:31.029Z,84.55
2019-01-03T06:43:18.201Z,84.44
2019-01-03T06:46:06.474Z,84.21
2019-01-03T06:48:57.799Z,84.30
2019-01-03T06:51:46.063Z,84.18
2019-01-03T06:54:52.782Z,83.50
2019-01-03T06:57:38.851Z,83.09
2019-01-03T07:00:33.453Z,82.87
2019-01-03T07:03:22.640Z,82.80
2019-01-03T07:06:21.438Z,82.69
2019-01-03T07:09:08.389Z,82.74
2019-01-03T07:12:05.345Z,82.50
2019-01-03T07:14:52.261Z,82.35
2019-01-03T07:17:39.503Z,82.63
2019-01-03T07:20:26.540Z,82.77
2019-01-03T07:23:17.822Z,83.12
2019-01-03T07:26:18.291Z,83.46
2019-01-03T07:29:12.657Z,83.79
2019-01-03T07:32:06.008Z,84.74
2019-01-03T07:35:12.456Z,85.16
2019-01-03T07:38:01.641Z,85.74
2019-01-03T07:40:59.046Z,86.30
2019-01-03T07:43:46.207Z,86.82
2019-01-03T07:46:43.686Z,86.83
2019-01-03T07:49:41.275Z,87.38
2019-01-03T07:52:48.220Z,87.76
2019-01-03T07:55:35.147Z,87.93
2019-01-03T07:58:29.169Z,87.93
2019-01-03T08:01:23.397Z,87.63
2019-01-03T08:04:10.840Z,87.42
2019-01-03T08:07:05.250Z,87.43
2019-01-03T08:10:05.671Z,87.35
2019-01-03T08:13:04.161Z,87.38
2019-01-03T08:16:10.643Z,87.09
2019-01-03T08:18:52.825Z,86.70
2019-01-03T08:21:40.026Z,86.78
2019-01-03T08:24:31.065Z,86.89
2019-01-03T08:27:34.410Z,86.82
2019-01-03T08:30:21.671Z,86.96
2019-01-03T08:33:24.643Z,86.29
2019-01-03T08:36:11.685Z,85.87
2019-01-03T08:38:59.962Z,86.20
2019-01-03T08:41:51.297Z,85.91
2019-01-03T08:44:38.554Z,85.72
2019-01-03T08:47:42.271Z,86.06
2019-01-03T08:50:29.178Z,85.82
2019-01-03T08:53:32.820Z,85.35
2019-01-03T08:56:30.266Z,85.06
2019-01-03T08:59:27.944Z,85.26
2019-01-03T09:02:19.217Z,83.84
2019-01-03T09:05:13.813Z,83.73
2019-01-03T09:08:04.973Z,82.68
2019-01-03T09:11:05.582Z,82.02
2019-01-03T09:14:06.078Z,81.48
2019-01-03T09:16:53.063Z,81.33
2019-01-03T09:19:40.360Z,80.53
2019-01-03T09:22:40.678Z,79.83
2019-01-03T09:25:27.633Z,78.66
2019-01-03T09:28:15.938Z,79.04
2019-01-03T09:31:07.201Z,78.19
2019-01-03T09:34:00.964Z,77.49
2019-01-03T09:36:47.839Z,76.18
2019-01-03T09:39:41.975Z,75.71
2019-01-03T09:42:32.992Z,75.82
2019-01-03T09:45:02.595Z,75.00
2019-01-03T09:47:32.755Z,74.43
2019-01-03T09:50:02.118Z,74.23
2019-01-03T09:52:31.444Z,74.00
2019-01-03T09:55:00.782Z,73.18
2019-01-03T09:57:30.142Z,72.85
2019-01-03T09:59:59.468Z,72.59
2019-01-03T10:02:28.847Z,71.96
2019-01-03T10:04:58.173Z,72.11
2019-01-03T10:07:27.538Z,72.19
2019-01-03T10:09:56.894Z,72.05
2019-01-03T10:12:26.305Z,72.18
2019-01-03T10:14:55.653Z,71.75
2019-01-03T10:17:25.041Z,71.76
2019-01-03T10:19:54.411Z,71.96
2019-01-03T10:22:23.750Z,71.53
2019-01-03T10:24:53.685Z,71.58
2019-01-03T10:27:23.111Z,71.73
2019-01-03T10:29:52.536Z,71.47
2019-01-03T10:32:21.879Z,71.38
2019-01-03T10:34:51.177Z,71.26
2019-01-03T10:37:20.511Z,70.73
2019-01-03T10:39:49.833Z,70.86
2019-01-03T10:42:19.220Z,70.93
2019-01-03T10:44:48.576Z,71.08
2019-01-03T10:47:18.019Z,71.34
2019-01-03T10:49:47.391Z,71.19
2019-01-03T10:52:16.751Z,70.85
2019-01-03T10:54:46.117Z,70.79
2019-01-03T10:57:15.532Z,70.55
2019-01-03T10:59:44.912Z,69.72
2019-01-03T11:02:14.252Z,69.58
2019-01-03T11:04:43.558Z,68.96
2019-01-03T11:07:12.925Z,68.96
2019-01-03T11:09:42.287Z,68.43
2019-01-03T11:12:11.671Z,67.59
2019-01-03T11:14:41.031Z,67.81
2019-01-03T11:17:10.396Z,67.81
2019-01-03T11:19:39.729Z,67.45
2019-01-03T11:22:09.492Z,67.45
2019-01-03T11:24:38.995Z,65.45
2019-01-03T11:27:08.386Z,65.45
2019-01-03T11:29:37.731Z,63.11
2019-01-03T11:32:07.055Z,61.30
2019-01-03T11:34:36.405Z,61.30
2019-01-03T11:37:05.744Z,60.55
2019-01-03T11:39:35.114Z,61.28
2019-01-03T11:42:04.483Z,60.83
2019-01-03T11:44:33.812Z,61.04
2019-01-03T11:47:03.162Z,60.97
2019-01-03T11:49:32.497Z,61.27
2019-01-03T11:52:01.804Z,61.43
2019-01-03T11:54:31.160Z,61.13
2019-01-03T11:57:00.490Z,61.70
2019-01-03T11:59:29.861Z,61.80
2019-01-03T12:01:59.214Z,61.88
2019-01-03T12:04:28.608Z,61.88
2019-01-03T12:06:57.948Z,61.88
2019-01-03T12:09:27.333Z,62.06
2019-01-03T12:11:56.663Z,62.35
2019-01-03T12:14:27.110Z,62.40
2019-01-03T12:16:56.472Z,62.40
2019-01-03T12:19:25.874Z,62.68
2019-01-03T12:21:55.172Z,62.89
2019-01-03T12:24:30.408Z,62.65
2019-01-03T12:26:55.629Z,62.65
2019-01-03T12:29:24.952Z,62.63
2019-01-03T12:31:54.325Z,62.38
2019-01-03T12:34:23.697Z,62.22
2019-01-03T12:36:53.060Z,62.22
2019-01-03T12:39:22.430Z,61.97
2019-01-03T12:41:52.067Z,61.83
2019-01-03T12:44:21.447Z,61.83
2019-01-03T12:46:52.912Z,62.48
2019-01-03T12:49:22.250Z,62.58
2019-01-03T12:51:51.603Z,62.17
2019-01-03T12:54:21.028Z,62.17
2019-01-03T12:56:50.360Z,62.60
2019-01-03T12:59:19.705Z,62.01
2019-01-03T13:01:49.051Z,62.04
2019-01-03T13:04:18.388Z,61.86
2019-01-03T13:06:47.759Z,62.41
2019-01-03T13:09:20.111Z,62.41
2019-01-03T13:11:49.602Z,62.66
2019-01-03T13:14:18.986Z,62.87
2019-01-03T13:16:48.356Z,63.02
2019-01-03T13:19:17.697Z,63.72
2019-01-03T13:21:47.026Z,63.72
2019-01-03T13:24:16.389Z,64.03
2019-01-03T13:26:45.724Z,64.32
2019-01-03T13:29:15.056Z,64.20
2019-01-03T13:31:45.248Z,64.49
2019-01-03T13:34:14.629Z,64.72
2019-01-03T13:36:43.921Z,64.76
2019-01-03T13:39:13.272Z,64.84
2019-01-03T13:41:42.695Z,64.46
2019-01-03T13:44:12.031Z,63.96
2019-01-03T13:46:41.736Z,63.75
2019-01-03T13:49:11.035Z,63.68
2019-01-03T13:51:40.710Z,63.80
2019-01-03T13:54:10.031Z,64.03
2019-01-03T13:56:39.395Z,63.96
2019-01-03T13:59:08.763Z,64.16
2019-01-03T14:01:38.569Z,64.34
2019-01-03T14:04:07.925Z,64.22
2019-01-03T14:06:37.705Z,64.54
2019-01-03T14:09:07.584Z,64.66
2019-01-03T14:11:36.907Z,64.67
2019-01-03T14:14:06.224Z,64.48
2019-01-03T14:16:35.593Z,64.64
2019-01-03T14:19:05.076Z,64.78
2019-01-03T14:21:34.465Z,64.95
2019-01-03T14:24:03.830Z,65.21
2019-01-03T14:26:34.272Z,65.73
2019-01-03T14:29:03.616Z,65.79
2019-01-03T14:31:33.118Z,65.37
2019-01-03T14:34:03.331Z,65.42
2019-01-03T14:36:32.850Z,65.83
2019-01-03T14:39:02.277Z,65.94
2019-01-03T14:41:31.598Z,65.97
2019-01-03T14:44:00.981Z,66.25
2019-01-03T14:46:30.354Z,66.58
2019-01-03T14:48:59.883Z,66.57
2019-01-03T14:51:29.249Z,66.29
2019-01-03T14:53:58.647Z,66.35
2019-01-03T14:56:28.026Z,66.38
2019-01-03T14:58:57.383Z,66.62
2019-01-03T15:01:26.718Z,66.60
2019-01-03T15:03:56.074Z,66.67
2019-01-03T15:06:25.847Z,66.79
2019-01-03T15:08:56.206Z,66.58
2019-01-03T15:11:29.938Z,66.70
2019-01-03T15:13:59.477Z,66.66
2019-01-03T15:16:29.251Z,66.24
2019-01-03T15:18:59.113Z,66.55
2019-01-03T15:21:29.290Z,66.64
2019-01-03T15:23:59.972Z,66.87
2019-01-03T15:26:35.207Z,67.24
2019-01-03T15:29:06.398Z,67.41
2019-01-03T15:31:39.220Z,67.46
2019-01-03T15:34:12.082Z,67.30
2019-01-03T15:36:46.740Z,67.41
2019-01-03T15:39:22.312Z,67.75
2019-01-03T15:42:45.750Z,67.89
2019-01-03T15:45:22.571Z,67.96
2019-01-03T15:48:18.194Z,67.91
2019-01-03T15:50:48.814Z,69.05
2019-01-03T15:53:20.010Z,71.13
2019-01-03T15:55:49.527Z,71.96
2019-01-03T15:58:20.453Z,72.28
2019-01-03T16:00:52.950Z,73.20
2019-01-03T16:03:23.632Z,73.40
2019-01-03T16:05:55.049Z,73.54
2019-01-03T16:08:24.988Z,73.79
2019-01-03T16:10:55.519Z,73.71
2019-01-03T16:13:25.141Z,73.98
2019-01-03T16:15:58.435Z,73.92
2019-01-03T16:18:27.823Z,74.12
2019-01-03T16:20:57.246Z,74.60
2019-01-03T16:23:27.179Z,74.36
2019-01-03T16:25:57.227Z,74.55
2019-01-03T16:28:27.352Z,74.77
2019-01-03T16:30:57.751Z,74.82
2019-01-03T16:33:28.286Z,74.97
2019-01-03T16:35:58.860Z,75.04
2019-01-03T16:38:30.562Z,75.30
2019-01-03T16:41:00.491Z,75.40
2019-01-03T16:43:30.287Z,75.33
2019-01-03T16:46:02.579Z,75.13
2019-01-03T16:48:33.822Z,75.43
2019-01-03T16:51:06.659Z,75.35
2019-01-03T16:53:37.660Z,75.60
2019-01-03T16:56:10.865Z,75.55
2019-01-03T16:58:47.123Z,75.60
2019-01-03T17:01:19.044Z,75.33
2019-01-03T17:03:48.729Z,75.72
2019-01-03T17:06:20.390Z,75.71
2019-01-03T17:08:51.070Z,75.69
2019-01-03T17:11:22.375Z,75.86
2019-01-03T17:13:51.985Z,75.66
2019-01-03T17:16:49.808Z,75.64
2019-01-03T17:19:20.864Z,75.52
2019-01-03T17:21:52.758Z,75.86
2019-01-03T17:24:23.390Z,75.96
2019-01-03T17:26:59.744Z,76.17
2019-01-03T17:29:45.193Z,76.54
2019-01-03T17:32:31.289Z,77.27
2019-01-03T17:35:04.471Z,78.02
2019-01-03T17:37:36.869Z,78.79
2019-01-03T17:40:07.612Z,79.35
2019-01-03T17:42:37.706Z,80.01
2019-01-03T17:45:09.369Z,81.33
2019-01-03T17:47:46.418Z,81.63
2019-01-03T17:50:16.301Z,81.98
2019-01-03T17:52:46.826Z,82.93
2019-01-03T17:55:17.291Z,83.17
2019-01-03T17:57:54.807Z,83.65
2019-01-03T18:00:43.409Z,84.67
2019-01-03T18:03:18.012Z,85.06
2019-01-03T18:05:47.974Z,85.14
2019-01-03T18:08:23.518Z,85.57
2019-01-03T18:10:52.959Z,85.52
2019-01-03T18:13:23.161Z,85.64
2019-01-03T18:15:52.532Z,85.93
2019-01-03T18:18:22.279Z,86.03
2019-01-03T18:20:51.670Z,86.14
2019-01-03T18:23:21.830Z,86.58
2019-01-03T18:25:57.122Z,87.06
2019-01-03T18:28:26.782Z,86.77
2019-01-03T18:30:56.223Z,86.52
2019-01-03T18:33:25.614Z,86.15
2019-01-03T18:35:55.994Z,85.94
2019-01-03T18:38:25.809Z,86.00
2019-01-03T18:40:56.554Z,85.30
2019-01-03T18:43:26.023Z,84.87
2019-01-03T18:45:55.737Z,84.22
2019-01-03T18:48:25.114Z,84.16
2019-01-03T18:50:54.521Z,84.45
2019-01-03T18:53:24.290Z,84.37
2019-01-03T18:55:54.431Z,84.34
2019-01-03T18:58:24.173Z,84.18
2019-01-03T19:00:53.960Z,83.89
2019-01-03T19:03:23.614Z,83.97
2019-01-03T19:05:53.088Z,83.80
2019-01-03T19:08:22.456Z,83.91
2019-01-03T19:11:35.971Z,83.31
2019-01-03T19:17:27.777Z,83.68
2019-01-03T19:20:24.855Z,84.12
2019-01-03T19:24:02.643Z,84.17
2019-01-03T19:26:38.540Z,84.85
2019-01-03T19:29:37.385Z,85.28
2019-01-03T19:32:16.596Z,84.83
2019-01-03T19:34:46.141Z,84.29
2019-01-03T19:37:15.556Z,84.27
2019-01-03T19:39:44.923Z,84.48
2019-01-03T19:42:14.309Z,84.75
2019-01-03T19:44:43.671Z,84.50
2019-01-03T19:47:13.969Z,84.25
2019-01-03T19:49:45.362Z,84.49
2019-01-03T19:52:14.841Z,84.54
2019-01-03T19:54:44.212Z,84.35
2019-01-03T19:57:14.445Z,84.10
2019-01-03T19:59:43.858Z,83.78
2019-01-03T20:02:14.137Z,83.61
2019-01-03T20:04:43.487Z,83.63
2019-01-03T20:07:12.830Z,83.30
2019-01-03T20:09:42.268Z,82.88
2019-01-03T20:12:11.637Z,82.83
2019-01-03T20:14:41.084Z,82.84
2019-01-03T20:17:11.402Z,82.07
2019-01-03T20:19:42.334Z,82.18
2019-01-03T20:22:11.681Z,82.08
2019-01-03T20:24:42.633Z,80.95
2019-01-03T20:27:17.081Z,80.51
2019-01-03T20:29:46.422Z,80.15
2019-01-03T20:32:16.808Z,79.60
2019-01-03T20:34:46.715Z,79.03
2019-01-03T20:37:16.290Z,78.63
2019-01-03T20:39:49.320Z,78.60
2019-01-03T20:42:20.991Z,78.20
2019-01-03T20:45:26.175Z,77.99
2019-01-03T20:47:55.510Z,78.17
2019-01-03T20:50:25.127Z,77.43
2019-01-03T20:52:54.909Z,77.45
2019-01-03T20:55:24.845Z,77.20
2019-01-03T20:57:54.275Z,77.29
2019-01-03T21:00:24.556Z,77.33
2019-01-03T21:02:54.785Z,77.23
2019-01-03T21:05:24.469Z,77.44
2019-01-03T21:07:53.826Z,77.04
2019-01-03T21:10:24.807Z,77.22
2019-01-03T21:12:54.356Z,77.27
2019-01-03T21:15:23.788Z,77.19
2019-01-03T21:17:53.342Z,76.67
2019-01-03T21:20:23.530Z,76.90
2019-01-03T21:22:54.173Z,76.84
2019-01-03T21:25:25.978Z,77.04
2019-01-03T21:27:57.189Z,76.94
2019-01-03T21:30:28.856Z,76.97
2019-01-03T21:32:58.196Z,77.07
2019-01-03T21:35:28.881Z,76.87
2019-01-03T21:37:58.544Z,77.02
2019-01-03T21:40:27.977Z,76.94
2019-01-03T21:42:58.378Z,76.82
2019-01-03T21:45:28.152Z,76.52
2019-01-03T21:47:59.750Z,76.83
2019-01-03T21:50:29.059Z,77.12
2019-01-03T21:52:58.881Z,76.75
2019-01-03T21:55:30.364Z,76.61
2019-01-03T21:57:59.988Z,76.46
2019-01-03T22:00:29.955Z,76.69
2019-01-03T22:03:02.049Z,76.82
2019-01-03T22:05:31.432Z,76.80
2019-01-03T22:08:00.838Z,76.94
2019-01-03T22:10:31.715Z,77.04
2019-01-03T22:13:01.657Z,76.73
2019-01-03T22:15:31.833Z,77.17
2019-01-03T22:18:03.295Z,76.99
2019-01-03T22:20:39.447Z,77.14
2019-01-03T22:23:11.808Z,77.42
2019-01-03T22:25:45.049Z,77.53
2019-01-03T22:28:16.261Z,77.67
2019-01-03T22:30:46.863Z,77.77
2019-01-03T22:33:17.538Z,77.97
2019-01-03T22:35:46.949Z,78.13
2019-01-03T22:38:17.578Z,78.15
2019-01-03T22:40:47.943Z,78.17
2019-01-03T22:43:17.571Z,78.23
2019-01-03T22:45:47.820Z,78.17
2019-01-03T22:48:17.364Z,78.37
2019-01-03T22:50:47.923Z,78.51
2019-01-03T22:53:17.271Z,78.73
2019-01-03T22:55:47.477Z,78.75
2019-01-03T22:58:17.532Z,78.79
2019-01-03T23:00:52.201Z,78.65
2019-01-03T23:03:21.679Z,78.85
2019-01-03T23:05:51.407Z,78.70
2019-01-03T23:08:22.377Z,78.64
2019-01-03T23:10:51.693Z,78.75
2019-01-03T23:13:21.502Z,78.83
2019-01-03T23:15:50.950Z,79.18
2019-01-03T23:18:20.285Z,79.41
2019-01-03T23:20:49.656Z,79.36
2019-01-03T23:23:18.991Z,79.71
2019-01-03T23:25:48.299Z,79.75
2019-01-03T23:28:17.617Z,79.89
2019-01-03T23:30:46.971Z,79.93
2019-01-03T23:33:16.295Z,79.83
2019-01-03T23:35:45.622Z,79.73
2019-01-03T23:38:14.936Z,79.56
2019-01-03T23:40:44.305Z,79.64
2019-01-03T23:43:13.625Z,79.56
2019-01-03T23:45:42.998Z,79.57
2019-01-03T23:48:12.406Z,79.65
2019-01-03T23:50:41.786Z,79.45
2019-01-03T23:53:11.149Z,79.33
2019-01-03T23:55:48.841Z,79.11
2019-01-03T23:58:20.491Z,79.10
